Time;durP1;ratioP1;P1;durP2;ratioP2;P2;SDS_P1;SDS_P2;PMS_P1;PMS_P2;Temp;Humidity;BMP_temperature;BMP_pressure;BME280_temperature;BME280_humidity;BME280_pressure;Samples;Min_cycle;Max_cycle;Signal;HPM_P1;HPM_P2
2022/01/27 00:01:36;;;;;;;43.57;19.43;;;;;;;-1.45;79.24;101062.98;125230;1102;104743;-80
2022/01/27 00:04:14;;;;;;;44.20;19.13;;;;;;;-1.43;79.42;101070.84;125088;1102;104157;-80
2022/01/27 00:06:46;;;;;;;40.97;18.93;;;;;;;-1.39;78.35;101078.09;125226;1102;104156;-81
2022/01/27 00:09:24;;;;;;;44.63;21.00;;;;;;;-1.38;79.04;101072.20;125182;1102;107020;-80
2022/01/27 00:11:55;;;;;;;43.80;19.50;;;;;;;-1.35;78.18;101072.48;125203;1102;104739;-80
2022/01/27 00:14:27;;;;;;;43.13;19.53;;;;;;;-1.33;78.37;101068.36;125208;1102;104150;-80
2022/01/27 00:17:02;;;;;;;46.13;20.03;;;;;;;-1.32;78.31;101073.66;125199;1102;104152;-81
2022/01/27 00:19:35;;;;;;;44.13;19.37;;;;;;;-1.30;79.23;101068.64;125149;1102;117871;-80
2022/01/27 00:22:07;;;;;;;40.27;19.30;;;;;;;-1.30;79.29;101072.12;125216;1102;104343;-79
2022/01/27 00:24:38;;;;;;;42.37;19.33;;;;;;;-1.29;78.81;101067.90;125239;1102;104220;-79
2022/01/27 00:27:10;;;;;;;39.03;18.23;;;;;;;-1.28;79.49;101065.46;125240;1102;104605;-81
2022/01/27 00:29:42;;;;;;;38.53;17.63;;;;;;;-1.24;78.97;101068.31;125178;1102;104299;-80
2022/01/27 00:32:14;;;;;;;39.57;18.97;;;;;;;-1.20;79.10;101067.81;125265;1102;104201;-80
2022/01/27 00:34:46;;;;;;;40.83;19.10;;;;;;;-1.18;79.41;101063.73;125234;1102;104248;-80
2022/01/27 00:37:18;;;;;;;40.17;18.53;;;;;;;-1.18;78.30;101059.47;125205;1102;104205;-80
2022/01/27 00:39:49;;;;;;;40.40;18.37;;;;;;;-1.18;78.93;101049.17;125237;1102;110593;-80
2022/01/27 00:42:22;;;;;;;39.27;18.53;;;;;;;-1.17;78.38;101039.77;125267;1102;104258;-80
2022/01/27 00:44:54;;;;;;;41.73;18.97;;;;;;;-1.18;78.73;101041.45;125300;1102;104159;-80
2022/01/27 00:47:26;;;;;;;43.97;19.00;;;;;;;-1.21;78.39;101027.39;125239;1102;104179;-80
2022/01/27 00:49:58;;;;;;;44.13;19.63;;;;;;;-1.23;78.87;101022.11;125277;1102;104127;-80
2022/01/27 00:52:36;;;;;;;40.43;18.80;;;;;;;-1.25;79.10;101026.19;125298;1102;104217;-80
2022/01/27 00:55:10;;;;;;;43.33;19.33;;;;;;;-1.25;79.12;101026.19;125295;1102;103296;-80
2022/01/27 00:57:59;;;;;;;48.47;20.30;;;;;;;-1.28;78.64;101031.06;125345;1102;104698;-80
2022/01/27 01:00:35;;;;;;;43.10;19.20;;;;;;;-1.28;79.30;101028.48;125167;1102;108246;-80
2022/01/27 01:03:10;;;;;;;43.07;20.10;;;;;;;-1.27;78.88;101023.47;125143;1102;105264;-79
2022/01/27 01:06:00;;;;;;;44.90;20.67;;;;;;;-1.27;79.29;101025.16;125265;1102;104163;-79
2022/01/27 01:09:20;;;;;;;42.07;19.50;;;;;;;-1.26;78.63;101019.25;125194;1102;104168;-80
2022/01/27 01:12:08;;;;;;;42.70;19.87;;;;;;;-1.23;79.12;101023.75;125287;1102;104781;-80
2022/01/27 01:14:46;;;;;;;41.20;18.43;;;;;;;-1.23;79.59;101001.50;125267;1102;104227;-78
2022/01/27 01:31:43;;;;;;;36.17;15.90;;;;;;;-1.19;79.43;101006.14;125226;1102;104184;-79
2022/01/27 01:34:19;;;;;;;38.43;16.23;;;;;;;-1.19;78.69;100998.42;125238;1102;104207;-80
2022/01/27 01:36:57;;;;;;;35.70;16.57;;;;;;;-1.18;78.64;100995.09;125309;1102;104163;-80
2022/01/27 01:39:31;;;;;;;33.37;15.13;;;;;;;-1.18;78.91;101012.22;125271;1102;104140;-80
2022/01/27 01:42:04;;;;;;;33.00;14.63;;;;;;;-1.20;78.41;101017.23;125203;1102;102260;-80
2022/01/27 01:44:36;;;;;;;32.95;15.32;;;;;;;-1.19;78.62;101016.45;125169;1102;104259;-80
2022/01/27 01:47:08;;;;;;;38.57;16.37;;;;;;;-1.17;78.71;101008.86;125268;1102;104162;-80
2022/01/27 01:49:40;;;;;;;36.17;15.83;;;;;;;-1.16;78.32;100998.70;125212;1102;104174;-81
2022/01/27 01:52:11;;;;;;;35.23;16.07;;;;;;;-1.15;78.36;101000.52;125215;1102;104293;-80
2022/01/27 01:54:43;;;;;;;35.83;16.17;;;;;;;-1.13;79.46;100986.09;125184;1102;101708;-81
2022/01/27 01:57:16;;;;;;;62.57;24.57;;;;;;;-1.10;79.57;100983.80;125317;1102;104178;-81
2022/01/27 01:59:47;;;;;;;50.93;22.23;;;;;;;-1.10;78.75;100990.63;125214;1102;104168;-81
2022/01/27 02:02:20;;;;;;;57.33;23.50;;;;;;;-1.09;78.82;100979.57;125344;1102;104175;-81
2022/01/27 02:04:51;;;;;;;49.07;22.93;;;;;;;-1.10;79.03;100988.95;125259;1102;104261;-81
2022/01/27 02:07:33;;;;;;;52.83;22.30;;;;;;;-1.11;78.45;101002.61;125174;1102;104265;-80
2022/01/27 02:10:17;;;;;;;43.80;19.10;;;;;;;-1.11;79.63;100993.95;125144;1102;104303;-81
2022/01/27 02:18:27;;;;;;;32.57;14.20;;;;;;;-1.06;79.49;100997.88;125257;1102;104281;-80
2022/01/27 02:20:58;;;;;;;32.55;13.35;;;;;;;-1.07;79.10;101000.31;125222;1102;104159;-80
2022/01/27 02:23:30;;;;;;;35.53;16.20;;;;;;;-1.05;78.24;101009.08;125256;1102;104201;-81
2022/01/27 02:26:01;;;;;;;32.73;14.03;;;;;;;-1.05;78.20;101003.92;125252;1102;104178;-81
2022/01/27 02:28:33;;;;;;;30.93;12.70;;;;;;;-1.07;78.95;101008.05;125285;1102;104201;-80
2022/01/27 02:31:04;;;;;;;35.63;15.20;;;;;;;-1.06;79.32;101009.83;125229;1102;104176;-80
2022/01/27 02:33:36;;;;;;;29.13;13.20;;;;;;;-1.05;78.46;101006.50;125235;1102;104220;-80
2022/01/27 02:36:08;;;;;;;34.03;14.73;;;;;;;-1.04;79.23;100996.33;125118;1102;104699;-80
2022/01/27 02:38:43;;;;;;;30.47;13.33;;;;;;;-1.02;78.56;100991.31;125319;1102;104175;-80
2022/01/27 02:41:17;;;;;;;29.20;12.80;;;;;;;-1.00;78.86;100990.66;125254;1102;104156;-80
2022/01/27 02:43:50;;;;;;;32.53;14.20;;;;;;;-1.02;78.75;100984.48;125285;1102;104336;-81
2022/01/27 02:46:31;;;;;;;30.20;13.43;;;;;;;-1.02;78.67;100969.03;125219;1102;104201;-81
2022/01/27 02:49:03;;;;;;;27.57;12.40;;;;;;;-1.01;79.23;100970.84;125239;1102;104188;-80
2022/01/27 02:51:37;;;;;;;27.53;11.87;;;;;;;-0.98;78.83;100972.77;125239;1102;104318;-80
2022/01/27 02:54:08;;;;;;;28.65;11.95;;;;;;;-0.98;79.25;100981.42;125295;1102;104153;-80
2022/01/27 02:56:45;;;;;;;34.03;13.00;;;;;;;-0.94;78.77;100980.02;125274;1102;104223;-80
2022/01/27 02:59:19;;;;;;;27.80;12.23;;;;;;;-0.94;79.19;100987.75;125212;1102;104146;-79
2022/01/27 03:01:52;;;;;;;27.00;12.50;;;;;;;-0.94;79.23;100987.75;125129;1102;104229;-80
2022/01/27 03:04:24;;;;;;;29.90;12.30;;;;;;;-0.94;78.54;100992.90;125187;1102;104323;-80
2022/01/27 03:06:55;;;;;;;25.20;11.37;;;;;;;-0.94;79.35;100987.75;125304;1102;104165;-80
2022/01/27 03:09:27;;;;;;;26.73;12.80;;;;;;;-0.93;78.26;100992.14;125245;1102;104185;-80
2022/01/27 03:12:02;;;;;;;28.27;11.40;;;;;;;-0.92;78.84;100991.35;125092;1102;104204;-80
2022/01/27 03:14:34;;;;;;;25.60;11.63;;;;;;;-0.93;78.22;100990.46;125249;1102;104186;-80
2022/01/27 03:17:09;;;;;;;23.90;10.83;;;;;;;-0.94;78.43;100987.75;125260;1102;104165;-80
2022/01/27 03:19:38;;;;;;;;;;;;;;;-0.96;78.46;100984.14;125326;1102;104205;-80
2022/01/27 03:22:11;;;;;;;46.83;20.90;;;;;;;-0.99;79.02;100981.29;125165;1102;104629;-80
2022/01/27 03:24:42;;;;;;;46.93;21.43;;;;;;;-1.03;79.14;100984.34;125264;1102;104233;-80
2022/01/27 03:27:19;;;;;;;52.20;22.03;;;;;;;-1.06;79.16;100987.58;125202;1102;104312;-80
2022/01/27 03:29:50;;;;;;;50.60;25.17;;;;;;;-1.06;78.99;100995.30;125176;1102;104176;-80
2022/01/27 03:32:25;;;;;;;51.67;23.33;;;;;;;-1.03;78.55;100997.23;125198;1102;104159;-80
2022/01/27 03:34:56;;;;;;;53.80;25.40;;;;;;;-1.00;79.30;100995.81;125235;1102;104176;-80
2022/01/27 03:37:27;;;;;;;49.50;23.07;;;;;;;-0.97;78.24;100993.52;125287;1102;104232;-80
2022/01/27 03:39:59;;;;;;;50.07;22.87;;;;;;;-0.95;79.40;100986.86;125318;1102;104165;-80
2022/01/27 03:42:30;;;;;;;49.67;22.07;;;;;;;-0.93;79.18;100981.84;125261;1102;104321;-80
2022/01/27 03:45:02;;;;;;;47.50;23.13;;;;;;;-0.92;79.17;100981.97;125283;1102;104219;-80
2022/01/27 03:47:33;;;;;;;47.57;23.83;;;;;;;-0.89;79.36;100977.85;125177;1102;104181;-79
2022/01/27 03:50:05;;;;;;;48.97;23.80;;;;;;;-0.89;79.18;100973.59;125243;1102;104152;-79
2022/01/27 03:52:37;;;;;;;52.37;25.17;;;;;;;-0.88;79.30;100983.14;125255;1102;104297;-79
2022/01/27 03:55:11;;;;;;;54.77;23.93;;;;;;;-0.88;79.08;100966.79;125362;1102;104143;-79
2022/01/27 03:57:42;;;;;;;50.28;23.95;;;;;;;-0.86;79.13;100970.39;125175;1102;104246;-80
2022/01/27 04:00:16;;;;;;;50.23;25.23;;;;;;;-0.87;79.69;100966.00;125175;1102;104380;-80
2022/01/27 04:03:00;;;;;;;56.73;28.23;;;;;;;-0.85;78.71;100982.52;125183;1102;104287;-80
2022/01/27 04:05:35;;;;;;;;;;;;;;;-0.87;79.41;100987.53;125235;1102;104251;-80
2022/01/27 04:08:09;;;;;;;55.80;27.50;;;;;;;-0.90;79.23;100982.11;125251;1102;101981;-80
2022/01/27 04:10:41;;;;;;;59.17;27.13;;;;;;;-0.88;78.95;100977.09;125236;1102;104151;-80
2022/01/27 04:13:12;;;;;;;56.87;28.13;;;;;;;-0.86;79.42;100975.55;125251;1102;104178;-80
2022/01/27 04:15:45;;;;;;;55.20;27.23;;;;;;;-0.82;79.65;100982.80;125265;1102;104255;-80
2022/01/27 04:18:17;;;;;;;60.07;28.20;;;;;;;-0.81;79.74;100989.73;125251;1102;104322;-80
2022/01/27 04:20:49;;;;;;;53.47;26.47;;;;;;;-0.78;78.85;100985.78;125276;1102;104795;-79
2022/01/27 04:23:21;;;;;;;51.33;25.43;;;;;;;-0.76;78.53;100983.34;125221;1102;105503;-80
2022/01/27 04:25:52;;;;;;;50.60;24.13;;;;;;;-0.74;79.58;100987.84;125269;1102;102773;-80
2022/01/27 04:28:30;;;;;;;51.23;23.97;;;;;;;-0.71;78.67;100994.05;125076;1102;104208;-80
2022/01/27 04:31:05;;;;;;;52.43;24.10;;;;;;;-0.70;79.40;100996.77;125240;1102;104156;-80
2022/01/27 04:33:38;;;;;;;50.87;23.57;;;;;;;-0.68;78.95;100995.22;125025;1105;104307;-81
2022/01/27 04:36:17;;;;;;;50.50;25.63;;;;;;;-0.67;79.05;100998.69;125051;1105;104749;-81
2022/01/27 04:38:54;;;;;;;50.67;24.30;;;;;;;-0.66;78.89;100988.52;125079;1105;104334;-80
2022/01/27 04:41:33;;;;;;;50.43;24.33;;;;;;;-0.65;79.31;100987.75;125070;1105;104251;-81
2022/01/27 04:44:14;;;;;;;57.40;28.77;;;;;;;-0.63;79.31;100982.73;125021;1105;104661;-80
2022/01/27 04:46:51;;;;;;;51.33;24.40;;;;;;;-0.62;78.79;100987.13;125037;1105;104415;-80
2022/01/27 04:49:23;;;;;;;52.37;24.90;;;;;;;-0.59;78.90;100982.25;125022;1105;104380;-81
2022/01/27 04:51:54;;;;;;;46.63;24.03;;;;;;;-0.57;78.60;100983.27;124950;1105;104431;-81
2022/01/27 04:54:30;;;;;;;51.37;24.30;;;;;;;-0.55;78.61;100984.30;125004;1106;104374;-81
2022/01/27 04:57:04;;;;;;;41.23;19.97;;;;;;;-0.53;78.98;100974.12;125060;1105;104322;-81
2022/01/27 04:59:39;;;;;;;47.17;21.13;;;;;;;-0.53;78.62;100969.89;125064;1105;104431;-81
2022/01/27 05:02:18;;;;;;;38.73;17.13;;;;;;;-0.51;79.14;100970.92;125076;1105;104153;-80
2022/01/27 05:04:50;;;;;;;35.37;16.80;;;;;;;-0.50;79.09;100971.81;125020;1103;104165;-81
2022/01/27 05:07:22;;;;;;;32.50;13.93;;;;;;;-0.50;79.02;100977.86;125030;1105;104326;-81
2022/01/27 05:09:58;;;;;;;30.57;13.30;;;;;;;-0.49;78.77;100966.80;125028;1105;104211;-81
2022/01/27 05:12:36;;;;;;;27.67;11.93;;;;;;;-0.51;79.04;100970.92;125178;1102;104209;-81
2022/01/27 05:15:09;;;;;;;31.07;12.53;;;;;;;-0.53;78.58;100966.39;125194;1102;104309;-79
2022/01/27 05:17:41;;;;;;;27.63;11.90;;;;;;;-0.56;78.27;100974.78;125277;1102;104184;-79
2022/01/27 05:20:14;;;;;;;37.67;13.90;;;;;;;-0.60;78.42;100968.43;125269;1102;104294;-80
2022/01/27 05:22:45;;;;;;;35.03;15.80;;;;;;;-0.60;78.50;100970.12;125177;1102;104801;-80
2022/01/27 05:25:17;;;;;;;36.43;16.00;;;;;;;-0.57;79.42;100967.81;125252;1102;104249;-80
2022/01/27 05:27:48;;;;;;;34.77;16.37;;;;;;;-0.53;78.85;100971.55;125219;1102;104162;-80
2022/01/27 05:30:20;;;;;;;30.53;13.27;;;;;;;-0.52;79.51;100978.52;125262;1102;104165;-80
2022/01/27 05:32:51;;;;;;;30.80;14.30;;;;;;;-0.54;78.88;100965.50;125144;1102;104159;-80
2022/01/27 05:35:22;;;;;;;26.50;12.10;;;;;;;-0.53;79.01;100972.47;125119;1102;104152;-79
2022/01/27 05:37:54;;;;;;;29.50;11.17;;;;;;;-0.54;78.96;100970.66;125207;1102;104194;-80
2022/01/27 05:40:26;;;;;;;23.17;9.77;;;;;;;-0.56;78.85;100967.05;125278;1102;104172;-81
2022/01/27 05:42:57;;;;;;;25.13;10.60;;;;;;;-0.58;78.79;100966.91;125236;1102;104354;-81
2022/01/27 05:45:29;;;;;;;22.87;8.97;;;;;;;-0.58;78.42;100973.72;125048;1102;104280;-80
2022/01/27 05:48:00;;;;;;;21.97;9.67;;;;;;;-0.60;78.21;100978.74;125208;1102;104283;-81
2022/01/27 05:50:32;;;;;;;22.70;9.83;;;;;;;-0.59;78.52;100979.67;125220;1102;104149;-80
2022/01/27 05:53:04;;;;;;;24.37;10.07;;;;;;;-0.57;79.22;100984.17;125176;1102;104307;-80
2022/01/27 05:55:36;;;;;;;27.83;10.73;;;;;;;-0.54;79.24;100986.13;125100;1102;104159;-80
2022/01/27 05:58:07;;;;;;;47.47;20.60;;;;;;;-0.54;78.66;100978.39;124925;1102;104582;-80
2022/01/27 06:00:39;;;;;;;49.00;24.27;;;;;;;-0.53;78.59;100977.62;125221;1102;104254;-79
2022/01/27 06:03:10;;;;;;;54.47;26.00;;;;;;;-0.53;78.83;100969.89;125216;1102;104201;-79
2022/01/27 06:05:42;;;;;;;54.43;26.33;;;;;;;-0.50;78.62;100976.97;125315;1102;104179;-80
2022/01/27 06:08:13;;;;;;;56.27;26.10;;;;;;;-0.49;78.65;100976.21;125147;1102;104210;-80
2022/01/27 06:10:46;;;;;;;55.13;27.30;;;;;;;-0.48;78.75;100971.19;125190;1102;104236;-80
2022/01/27 06:13:19;;;;;;;52.55;26.12;;;;;;;-0.45;79.11;100975.69;125134;1102;104172;-80
2022/01/27 06:15:51;;;;;;;55.70;26.33;;;;;;;-0.44;78.73;100978.41;124827;1102;104573;-79
2022/01/27 06:18:23;;;;;;;55.30;26.90;;;;;;;-0.41;79.12;100972.63;125095;1102;104181;-78
2022/01/27 06:20:59;;;;;;;51.37;25.23;;;;;;;-0.41;79.24;100973.52;125135;1102;104303;-78
2022/01/27 06:23:31;;;;;;;53.90;25.90;;;;;;;-0.38;78.84;100976.36;125095;1102;104175;-79
2022/01/27 06:26:04;;;;;;;45.93;23.17;;;;;;;-0.38;78.59;100978.05;125069;1102;104178;-80
2022/01/27 06:28:35;;;;;;;47.07;22.00;;;;;;;-0.38;78.88;100978.05;125064;1102;104166;-79
2022/01/27 06:31:08;;;;;;;48.93;23.07;;;;;;;-0.36;78.78;100973.91;125034;1102;104188;-78
2022/01/27 06:33:39;;;;;;;47.97;23.20;;;;;;;-0.32;79.26;100973.42;125115;1102;104287;-79
2022/01/27 06:36:14;;;;;;;45.80;21.10;;;;;;;-0.29;79.18;100983.11;125060;1102;104185;-78
2022/01/27 06:38:48;;;;;;;44.60;20.37;;;;;;;-0.28;79.48;100979.73;125164;1102;104152;-79
2022/01/27 06:41:20;;;;;;;45.43;19.95;;;;;;;-0.27;78.61;100982.45;125040;1102;104657;-80
2022/01/27 06:43:57;;;;;;;41.10;19.63;;;;;;;-0.26;78.88;100979.11;125046;1102;104197;-80
2022/01/27 06:46:30;;;;;;;36.77;18.23;;;;;;;-0.24;78.69;100985.29;125035;1099;105547;-79
2022/01/27 06:49:03;;;;;;;35.90;16.90;;;;;;;-0.23;78.72;100984.53;125029;1102;104271;-80
2022/01/27 06:51:36;;;;;;;40.97;20.13;;;;;;;-0.20;78.83;100989.06;125161;1099;104169;-79
2022/01/27 06:54:09;;;;;;;47.13;22.60;;;;;;;-0.17;79.46;100989.33;125041;1102;104142;-79
2022/01/27 06:56:40;;;;;;;44.45;22.95;;;;;;;-0.15;79.22;100990.35;125024;1102;104166;-79
2022/01/27 06:59:12;;;;;;;49.80;24.33;;;;;;;-0.14;79.31;100989.59;125004;1102;104216;-80
2022/01/27 07:01:44;;;;;;;53.80;24.77;;;;;;;-0.13;78.98;100991.38;125039;1102;104280;-80
2022/01/27 07:04:18;;;;;;;52.67;24.93;;;;;;;-0.11;78.91;100991.51;125007;1100;104156;-79
2022/01/27 07:06:52;;;;;;;52.50;25.20;;;;;;;-0.11;79.20;100989.86;125060;1099;104175;-80
2022/01/27 07:09:26;;;;;;;55.80;26.00;;;;;;;-0.10;79.36;100983.90;125051;1102;104156;-79
2022/01/27 07:12:00;;;;;;;45.10;23.20;;;;;;;-0.09;79.17;100993.46;125012;1101;104342;-78
2022/01/27 07:14:33;;;;;;;47.83;22.67;;;;;;;-0.08;79.42;100986.61;125036;1099;104245;-79
2022/01/27 07:17:07;;;;;;;43.67;20.77;;;;;;;-0.07;79.37;100985.85;125048;1102;104268;-80
2022/01/27 07:19:43;;;;;;;44.57;20.87;;;;;;;-0.05;78.85;100971.40;125146;1100;104165;-78
2022/01/27 07:22:17;;;;;;;43.35;21.07;;;;;;;-0.03;79.34;100978.50;125133;1102;104639;-80
2022/01/27 07:24:50;;;;;;;41.10;18.97;;;;;;;-0.02;79.37;100981.98;125042;1102;104182;-81
2022/01/27 07:27:24;;;;;;;45.00;18.87;;;;;;;0.00;79.78;100983.03;125018;1102;104181;-79
2022/01/27 07:30:04;;;;;;;36.23;17.77;;;;;;;0.05;79.22;100978.23;125108;1102;104117;-80
2022/01/27 07:32:37;;;;;;;34.40;16.17;;;;;;;0.08;79.13;100976.84;125116;1099;104230;-80
2022/01/27 07:35:12;;;;;;;34.53;16.40;;;;;;;0.10;79.44;100972.70;125155;1099;104182;-81
2022/01/27 07:37:46;;;;;;;36.47;17.67;;;;;;;0.16;79.28;100972.33;125168;1099;104149;-80
2022/01/27 07:40:19;;;;;;;31.10;15.60;;;;;;;0.20;79.27;100970.91;125208;1102;104334;-79
2022/01/27 07:42:55;;;;;;;33.40;15.72;;;;;;;0.23;79.36;100976.33;125112;1102;104150;-79
2022/01/27 07:45:29;;;;;;;32.30;15.13;;;;;;;0.25;79.71;100970.53;125172;1102;104207;-80
2022/01/27 07:48:03;;;;;;;34.23;15.48;;;;;;;0.28;79.41;100963.05;125171;1099;104271;-80
2022/01/27 07:50:35;;;;;;;;;;;;;;;0.28;79.68;100965.63;125303;1099;104326;-79
2022/01/27 07:53:07;;;;;;;33.27;15.57;;;;;;;0.31;78.99;100971.05;125111;1099;104205;-79
2022/01/27 07:55:42;;;;;;;35.78;15.20;;;;;;;0.34;79.00;100970.38;125128;1102;105028;-78
2022/01/27 07:58:13;;;;;;;;;;;;;;;0.35;79.83;100965.34;125118;1099;104149;-79
2022/01/27 08:00:50;;;;;;;31.20;15.20;;;;;;;0.40;79.76;100964.84;125040;1102;104159;-81
2022/01/27 08:03:29;;;;;;;31.80;15.20;;;;;;;0.47;79.78;100964.59;125063;1102;104656;-80
2022/01/27 08:06:03;;;;;;;38.30;17.07;;;;;;;0.56;79.91;100960.16;124977;1102;105677;-80
2022/01/27 08:08:38;;;;;;;30.17;14.43;;;;;;;0.65;79.20;100963.50;125015;1099;104255;-80
2022/01/27 08:11:12;;;;;;;33.50;16.23;;;;;;;0.74;79.57;100965.06;125022;1102;104287;-78
2022/01/27 08:13:46;;;;;;;32.73;15.40;;;;;;;0.85;79.69;100964.25;125194;1099;104152;-80
2022/01/27 08:16:20;;;;;;;34.30;16.23;;;;;;;0.90;79.27;100962.94;125174;1099;104395;-79
2022/01/27 08:18:53;;;;;;;39.47;18.83;;;;;;;0.95;79.37;100958.14;125192;1102;104284;-79
2022/01/27 08:21:27;;;;;;;37.53;17.67;;;;;;;1.02;79.42;100960.46;125129;1102;104193;-79
2022/01/27 08:24:04;;;;;;;38.37;18.80;;;;;;;1.06;79.75;100953.08;125232;1100;104258;-80
2022/01/27 08:26:42;;;;;;;38.30;19.70;;;;;;;1.15;79.75;100955.48;125177;1102;104236;-80
2022/01/27 08:29:20;;;;;;;38.43;17.87;;;;;;;1.24;79.75;100955.33;125104;1102;105643;-79
2022/01/27 08:31:59;;;;;;;36.20;17.57;;;;;;;1.29;78.94;100955.70;125077;1102;104248;-78
2022/01/27 08:34:36;;;;;;;37.70;18.13;;;;;;;1.37;79.53;100954.62;125081;1102;104331;-79
2022/01/27 08:37:11;;;;;;;37.33;18.50;;;;;;;1.43;79.35;100945.69;125070;1102;104289;-78
2022/01/27 08:39:46;;;;;;;38.10;19.50;;;;;;;1.50;79.25;100951.34;125047;1102;104312;-78
2022/01/27 08:42:19;;;;;;;41.67;19.40;;;;;;;1.57;78.98;100948.44;125146;1102;104772;-79
2022/01/27 08:44:54;;;;;;;38.48;19.35;;;;;;;1.65;79.11;100957.70;125106;1102;104270;-79
2022/01/27 08:47:28;;;;;;;39.10;18.53;;;;;;;1.68;79.30;100952.77;125176;1102;104293;-79
2022/01/27 08:50:00;;;;;;;38.58;17.92;;;;;;;1.74;79.48;100948.06;125119;1099;105334;-78
2022/01/27 08:52:33;;;;;;;37.00;17.33;;;;;;;1.76;79.46;100956.88;125140;1102;104146;-78
2022/01/27 08:55:07;;;;;;;;;;;;;;;1.75;79.21;100957.65;125255;1102;104153;-79
2022/01/27 08:57:39;;;;;;;38.57;19.80;;;;;;;1.83;79.28;100947.00;125261;1102;104134;-78
2022/01/27 09:00:19;;;;;;;38.60;19.37;;;;;;;1.88;79.38;100959.50;125116;1102;104249;-78
2022/01/27 09:02:52;;;;;;;36.43;18.80;;;;;;;1.88;79.00;100956.02;125230;1102;104194;-79
2022/01/27 09:05:27;;;;;;;36.93;17.87;;;;;;;1.88;79.31;100954.32;125230;1102;104149;-78
2022/01/27 09:08:01;;;;;;;36.70;18.07;;;;;;;1.87;79.31;100952.54;125155;1103;104389;-78
2022/01/27 09:10:35;;;;;;;35.65;17.70;;;;;;;1.84;79.35;100952.30;125003;1102;110057;-78
2022/01/27 09:13:14;;;;;;;36.13;17.67;;;;;;;1.80;79.07;100943.38;125117;1102;104309;-79
2022/01/27 09:15:51;;;;;;;33.33;16.47;;;;;;;1.78;79.19;100949.23;125071;1102;104242;-78
2022/01/27 09:18:24;;;;;;;36.20;17.47;;;;;;;1.73;79.12;100943.70;125029;1102;104272;-79
2022/01/27 09:21:02;;;;;;;35.90;17.90;;;;;;;1.72;79.65;100943.58;125036;1102;104143;-79
2022/01/27 09:23:36;;;;;;;36.90;17.67;;;;;;;1.72;79.63;100941.88;125138;1099;104252;-78
2022/01/27 09:26:26;;;;;;;39.37;18.00;;;;;;;1.72;79.16;100944.47;125096;1102;104195;-78
2022/01/27 09:29:02;;;;;;;33.53;16.77;;;;;;;1.70;79.31;100939.95;125089;1102;104239;-78
2022/01/27 09:31:35;;;;;;;37.10;17.93;;;;;;;1.71;79.80;100944.35;125098;1102;104617;-78
2022/01/27 09:34:09;;;;;;;34.90;17.47;;;;;;;1.72;79.72;100949.64;125043;1102;104194;-77
2022/01/27 09:36:46;;;;;;;34.00;17.63;;;;;;;1.71;79.68;100939.18;125030;1102;104210;-78
2022/01/27 09:39:22;;;;;;;32.33;15.57;;;;;;;1.67;79.21;100935.45;125024;1102;104175;-77
2022/01/27 09:41:59;;;;;;;34.40;16.53;;;;;;;1.66;79.67;100932.75;124860;1102;106414;-78
2022/01/27 09:44:32;;;;;;;34.10;16.67;;;;;;;1.65;79.41;100939.59;124972;1102;104395;-78
2022/01/27 09:47:07;;;;;;;34.30;17.92;;;;;;;1.64;79.91;100930.05;125196;1102;105571;-78
2022/01/27 09:49:42;;;;;;;33.57;17.60;;;;;;;1.67;79.43;100919.94;125044;1102;105545;-77
2022/01/27 09:52:15;;;;;;;36.87;17.77;;;;;;;1.69;79.99;100920.95;125103;1102;104268;-78
2022/01/27 09:54:46;;;;;;;33.53;17.77;;;;;;;1.71;79.05;100921.06;125187;1102;104328;-77
2022/01/27 09:57:19;;;;;;;35.23;17.80;;;;;;;1.73;79.75;100916.90;125121;1102;104206;-78
2022/01/27 09:59:53;;;;;;;36.03;19.30;;;;;;;1.74;79.97;100921.30;125029;1099;104254;-79
2022/01/27 10:02:30;;;;;;;31.30;15.80;;;;;;;1.76;79.81;100911.97;125032;1102;104146;-79
2022/01/27 10:05:06;;;;;;;35.50;17.60;;;;;;;1.78;79.66;100908.72;125014;1100;104230;-79
2022/01/27 10:07:43;;;;;;;33.70;17.67;;;;;;;1.86;80.09;100909.31;125071;1102;104275;-78
2022/01/27 10:10:17;;;;;;;33.23;17.00;;;;;;;1.92;80.30;100904.61;125202;1102;103043;-78
2022/01/27 10:12:51;;;;;;;;;;;;;;;1.98;79.60;100901.61;125075;1102;104163;-78
2022/01/27 10:15:27;;;;;;;35.65;18.20;;;;;;;1.99;79.97;100895.62;125014;1102;104262;-79
2022/01/27 10:18:14;;;;;;;33.88;18.05;;;;;;;2.02;80.07;100890.67;125132;1102;104235;-80
2022/01/27 10:20:52;;;;;;;35.70;18.33;;;;;;;2.07;79.76;100889.36;125066;1099;104713;-79
2022/01/27 10:23:31;;;;;;;33.33;18.00;;;;;;;2.15;79.89;100883.06;125135;1099;104182;-78
2022/01/27 10:26:10;;;;;;;37.47;18.30;;;;;;;2.22;80.22;100880.94;125084;1102;104178;-75
2022/01/27 10:28:47;;;;;;;36.87;18.63;;;;;;;2.29;80.53;100878.92;125005;1102;104230;-76
2022/01/27 10:31:23;;;;;;;34.93;18.43;;;;;;;2.40;79.64;100871.03;125016;1099;104219;-79
2022/01/27 10:33:58;;;;;;;36.77;19.00;;;;;;;2.50;79.64;100871.83;125004;1102;104335;-76
2022/01/27 10:36:35;;;;;;;37.57;19.10;;;;;;;2.60;79.56;100864.73;124995;1102;104188;-76
2022/01/27 10:39:11;;;;;;;34.77;19.43;;;;;;;2.68;80.36;100863.59;125023;1102;104402;-77
2022/01/27 10:41:57;;;;;;;34.13;17.50;;;;;;;2.76;79.52;100859.90;124849;1102;104267;-78
2022/01/27 10:44:40;;;;;;;34.27;17.73;;;;;;;2.84;79.55;100863.05;125130;1102;104158;-77
2022/01/27 10:47:19;;;;;;;39.67;20.40;;;;;;;2.91;80.17;100859.20;124853;1102;104345;-77
2022/01/27 10:49:57;;;;;;;36.80;20.03;;;;;;;2.96;80.01;100863.02;124676;1102;104152;-77
2022/01/27 10:52:37;;;;;;;36.33;19.83;;;;;;;2.98;80.17;100862.34;124938;1102;104191;-78
2022/01/27 10:55:13;;;;;;;39.43;20.90;;;;;;;2.96;80.14;100856.16;124987;1102;104456;-78
2022/01/27 10:57:50;;;;;;;46.03;24.60;;;;;;;2.96;80.13;100861.34;124757;1102;104331;-76
2022/01/27 11:00:26;;;;;;;45.30;25.07;;;;;;;2.96;79.96;100860.42;125144;1102;104213;-78
2022/01/27 11:03:10;;;;;;;48.03;25.67;;;;;;;2.98;80.15;100854.56;124759;1102;104182;-80
2022/01/27 11:05:45;;;;;;;65.57;35.00;;;;;;;2.96;80.14;100855.23;124881;1102;104646;-78
2022/01/27 11:08:24;;;;;;;67.00;35.63;;;;;;;2.93;80.20;100849.83;124665;1105;104198;-78
2022/01/27 11:10:56;;;;;;;55.43;30.97;;;;;;;2.93;79.62;100845.56;124757;1103;104210;-77
2022/01/27 11:13:28;;;;;;;54.60;29.43;;;;;;;3.00;80.02;100837.41;124987;1102;104149;-78
2022/01/27 11:16:03;;;;;;;59.73;32.07;;;;;;;3.06;79.66;100835.26;125045;1102;104297;-78
2022/01/27 11:18:33;;;;;;;;;;;;;;;3.12;79.91;100832.22;125034;1102;105303;-77
2022/01/27 11:21:11;;;;;;;55.83;29.73;;;;;;;3.12;80.60;100832.22;124973;1102;104472;-78
2022/01/27 11:24:02;;;;;;;49.77;28.33;;;;;;;3.10;80.12;100826.03;125073;1102;104211;-78
2022/01/27 11:26:40;;;;;;;55.83;30.57;;;;;;;3.08;79.87;100826.70;125007;1102;104351;-79
2022/01/27 11:29:15;;;;;;;52.57;29.13;;;;;;;3.05;79.71;100827.37;124980;1102;104165;-77
2022/01/27 11:32:13;;;;;;;52.63;29.97;;;;;;;3.02;80.19;100828.08;125164;1102;104344;-78
2022/01/27 11:34:53;;;;;;;50.93;28.73;;;;;;;3.01;80.26;100820.19;124989;1100;104370;-77
2022/01/27 11:37:35;;;;;;;52.13;28.23;;;;;;;3.00;80.17;100820.97;125208;1102;104231;-78
2022/01/27 11:40:11;;;;;;;49.33;28.27;;;;;;;3.01;80.21;100812.41;125019;1103;104236;-77
2022/01/27 11:43:07;;;;;;;46.47;27.80;;;;;;;3.01;80.07;100808.12;125180;1102;104216;-77
2022/01/27 11:45:44;;;;;;;52.73;30.30;;;;;;;3.03;80.24;100808.23;125020;1099;104185;-78
2022/01/27 11:48:22;;;;;;;54.20;30.13;;;;;;;3.03;80.22;100810.82;124914;1102;104604;-78
2022/01/27 11:51:10;;;;;;;52.53;30.03;;;;;;;3.04;80.23;100807.45;124996;1099;104213;-78
2022/01/27 11:53:43;;;;;;;58.10;32.53;;;;;;;3.05;79.84;100804.04;125025;1102;104165;-78